createdAt,value
2022-11-30T00:01:12.428Z,48.13
2022-11-30T00:03:40.571Z,48.63
2022-11-30T00:06:10.087Z,50.10
2022-11-30T00:08:38.230Z,50.20
2022-11-30T00:11:10.299Z,50.50
2022-11-30T00:13:39.745Z,58.70
2022-11-30T00:16:08.388Z,57.07
2022-11-30T00:18:38.665Z,53.87
2022-11-30T00:21:09.747Z,47.73
2022-11-30T00:23:39.979Z,56.57
2022-11-30T00:26:10.418Z,67.77
2022-11-30T00:28:39.317Z,53.30
2022-11-30T00:31:09.075Z,64.40
2022-11-30T00:33:39.811Z,63.90
2022-11-30T00:36:09.669Z,67.00
2022-11-30T00:38:37.902Z,60.50
2022-11-30T00:41:06.487Z,67.47
2022-11-30T00:43:34.654Z,69.67
2022-11-30T00:46:02.969Z,71.00
2022-11-30T00:48:31.738Z,71.13
2022-11-30T00:51:01.520Z,70.60
2022-11-30T00:53:29.917Z,74.43
2022-11-30T00:55:58.205Z,67.67
2022-11-30T00:58:26.593Z,70.50
2022-11-30T01:00:54.877Z,69.90
2022-11-30T01:03:23.056Z,76.07
2022-11-30T01:05:51.739Z,82.57
2022-11-30T01:08:22.504Z,78.10
2022-11-30T01:10:53.905Z,80.37
2022-11-30T01:13:22.106Z,76.23
2022-11-30T01:15:50.427Z,78.50
2022-11-30T01:18:18.764Z,83.07
2022-11-30T01:20:47.007Z,74.03
2022-11-30T01:23:15.484Z,77.77
2022-11-30T01:25:55.124Z,74.53
2022-11-30T01:28:23.264Z,73.23
2022-11-30T01:30:58.193Z,79.67
2022-11-30T01:33:26.635Z,72.60
2022-11-30T01:36:03.379Z,70.20
2022-11-30T01:38:34.235Z,78.03
2022-11-30T01:41:04.603Z,74.70
2022-11-30T01:43:40.496Z,71.23
2022-11-30T01:46:33.319Z,70.07
2022-11-30T01:49:07.411Z,68.07
2022-11-30T01:51:41.495Z,70.43
2022-11-30T01:54:11.694Z,74.63
2022-11-30T01:56:45.920Z,84.87
2022-11-30T01:59:14.759Z,72.87
2022-11-30T02:01:42.991Z,72.07
2022-11-30T02:04:16.599Z,67.37
2022-11-30T02:06:45.256Z,72.63
2022-11-30T02:09:14.903Z,73.30
2022-11-30T02:11:44.806Z,73.23
2022-11-30T02:14:25.795Z,64.90
2022-11-30T02:17:03.177Z,64.33
2022-11-30T02:20:04.295Z,66.40
2022-11-30T02:22:51.030Z,74.50
2022-11-30T02:25:27.933Z,72.20
2022-11-30T02:28:14.653Z,84.17
2022-11-30T02:30:49.217Z,69.73
2022-11-30T02:33:20.805Z,76.40
2022-11-30T02:35:55.355Z,75.40
2022-11-30T02:38:25.851Z,70.10
2022-11-30T02:40:54.226Z,62.13
2022-11-30T02:43:24.714Z,70.67
2022-11-30T02:46:00.843Z,61.93
2022-11-30T02:48:33.640Z,62.67
2022-11-30T02:51:05.807Z,60.73
2022-11-30T02:53:34.207Z,71.00
2022-11-30T02:56:02.520Z,59.63
2022-11-30T02:58:30.817Z,53.40
2022-11-30T03:01:00.392Z,50.43
2022-11-30T03:03:28.797Z,59.93
2022-11-30T03:05:56.971Z,58.73
2022-11-30T03:08:25.317Z,51.00
2022-11-30T03:10:53.556Z,50.83
2022-11-30T03:13:21.725Z,58.73
2022-11-30T03:15:50.120Z,56.13
2022-11-30T03:18:19.716Z,51.23
2022-11-30T03:20:47.973Z,53.90
2022-11-30T03:23:16.035Z,54.80
2022-11-30T03:25:44.112Z,52.13
2022-11-30T03:28:12.209Z,47.37
2022-11-30T03:30:40.316Z,51.23
2022-11-30T03:33:08.436Z,47.23
2022-11-30T03:35:38.155Z,42.20
2022-11-30T03:38:06.603Z,42.60
2022-11-30T03:40:35.228Z,42.20
2022-11-30T03:43:03.654Z,41.83
2022-11-30T03:45:31.848Z,37.47
2022-11-30T03:48:00.171Z,35.53
2022-11-30T03:50:28.790Z,37.17
2022-11-30T03:52:58.287Z,34.47
2022-11-30T03:55:26.392Z,37.30
2022-11-30T03:57:54.600Z,34.23
2022-11-30T04:00:23.051Z,33.57
2022-11-30T04:02:51.541Z,28.80
2022-11-30T04:05:22.397Z,31.87
2022-11-30T04:07:50.567Z,30.03
2022-11-30T04:10:20.388Z,31.27
2022-11-30T04:12:48.810Z,27.17
2022-11-30T04:15:16.981Z,20.90
2022-11-30T04:17:45.092Z,25.60
2022-11-30T04:20:13.985Z,23.03
2022-11-30T04:22:42.229Z,24.60
2022-11-30T04:25:11.068Z,20.40
2022-11-30T04:27:40.638Z,22.23
2022-11-30T04:30:10.203Z,21.23
2022-11-30T04:32:38.486Z,23.13
2022-11-30T04:35:07.725Z,22.10
2022-11-30T04:37:36.102Z,20.93
2022-11-30T04:40:04.723Z,19.57
2022-11-30T04:42:32.903Z,17.20
2022-11-30T04:45:02.380Z,18.60
2022-11-30T04:47:30.526Z,21.37
2022-11-30T04:49:58.716Z,21.47
2022-11-30T04:52:26.960Z,21.63
2022-11-30T04:54:57.090Z,18.93
2022-11-30T04:57:25.947Z,18.37
2022-11-30T04:59:54.190Z,17.20
2022-11-30T05:02:23.828Z,18.50
2022-11-30T05:04:52.362Z,19.37
2022-11-30T05:07:20.820Z,17.73
2022-11-30T05:09:49.091Z,17.40
2022-11-30T05:12:17.318Z,17.83
2022-11-30T05:14:46.029Z,17.80
2022-11-30T05:17:14.544Z,18.43
2022-11-30T05:19:44.383Z,18.13
2022-11-30T05:22:12.717Z,22.43
2022-11-30T05:24:41.114Z,20.83
2022-11-30T05:27:14.347Z,21.07
2022-11-30T05:29:44.741Z,16.47
2022-11-30T05:32:12.977Z,16.93
2022-11-30T05:34:50.165Z,17.97
2022-11-30T05:37:21.283Z,16.00
2022-11-30T05:39:49.620Z,14.60
2022-11-30T05:42:19.007Z,18.07
2022-11-30T05:44:48.206Z,18.60
2022-11-30T05:47:16.900Z,16.60
2022-11-30T05:49:45.269Z,14.90
2022-11-30T05:52:13.834Z,15.73
2022-11-30T05:54:43.381Z,14.63
2022-11-30T05:57:11.573Z,15.80
2022-11-30T05:59:39.679Z,14.43
2022-11-30T06:02:07.958Z,15.00
2022-11-30T06:04:36.474Z,12.90
2022-11-30T06:07:04.640Z,14.03
2022-11-30T06:09:32.694Z,16.70
2022-11-30T06:12:02.140Z,13.50
2022-11-30T06:14:30.181Z,12.13
2022-11-30T06:16:58.282Z,13.97
2022-11-30T06:19:26.357Z,11.80
2022-11-30T06:21:54.461Z,12.20
2022-11-30T06:24:22.515Z,12.73
2022-11-30T06:26:50.570Z,13.83
2022-11-30T06:29:20.079Z,15.03
2022-11-30T06:31:48.131Z,14.00
2022-11-30T06:34:16.377Z,15.90
2022-11-30T06:36:44.419Z,16.03
2022-11-30T06:39:13.467Z,16.33
2022-11-30T06:41:41.555Z,15.17
2022-11-30T06:44:09.750Z,15.93
2022-11-30T06:46:39.159Z,14.40
2022-11-30T06:49:07.702Z,13.80
2022-11-30T06:51:37.294Z,15.50
2022-11-30T06:54:05.715Z,17.13
2022-11-30T06:56:33.773Z,16.10
2022-11-30T06:59:01.835Z,15.20
2022-11-30T07:01:29.917Z,16.23
2022-11-30T07:03:59.492Z,19.07
2022-11-30T07:06:27.618Z,13.40
2022-11-30T07:08:55.709Z,13.23
2022-11-30T07:11:23.763Z,17.00
2022-11-30T07:13:51.856Z,15.50
2022-11-30T07:16:19.991Z,20.00
2022-11-30T07:18:48.141Z,13.23
2022-11-30T07:21:17.577Z,13.30
2022-11-30T07:24:03.007Z,15.53
2022-11-30T07:26:31.076Z,15.63
2022-11-30T07:28:59.172Z,14.03
2022-11-30T07:31:28.797Z,13.70
2022-11-30T07:33:57.812Z,11.67
2022-11-30T07:36:29.661Z,11.80
2022-11-30T07:38:57.829Z,16.40
2022-11-30T07:41:26.061Z,14.43
2022-11-30T07:43:54.248Z,14.20
2022-11-30T07:46:22.360Z,15.17
2022-11-30T07:48:50.876Z,13.90
2022-11-30T07:51:21.519Z,20.97
2022-11-30T07:53:51.527Z,13.93
2022-11-30T07:56:21.220Z,12.00
2022-11-30T07:58:50.619Z,12.17
2022-11-30T08:01:21.605Z,11.80
2022-11-30T08:03:50.328Z,13.57
2022-11-30T08:06:20.930Z,11.87
2022-11-30T08:08:52.568Z,13.57
2022-11-30T08:11:23.059Z,16.90
2022-11-30T08:13:51.311Z,15.53
2022-11-30T08:16:20.841Z,26.40
2022-11-30T08:18:49.093Z,19.77
2022-11-30T08:21:19.721Z,17.60
2022-11-30T08:23:51.531Z,20.77
2022-11-30T08:26:21.123Z,27.77
2022-11-30T08:28:50.847Z,18.70
2022-11-30T08:31:21.973Z,29.07
2022-11-30T08:33:51.008Z,27.20
2022-11-30T08:36:21.064Z,30.83
2022-11-30T08:38:50.537Z,24.80
2022-11-30T08:41:20.300Z,43.73
2022-11-30T08:43:49.615Z,26.27
2022-11-30T08:49:24.106Z,19.70
2022-11-30T08:54:46.457Z,18.10
2022-11-30T08:57:15.235Z,21.07
2022-11-30T08:59:43.285Z,19.20
2022-11-30T09:02:12.285Z,24.50
2022-11-30T09:04:40.464Z,24.27
2022-11-30T09:07:09.688Z,19.80
2022-11-30T09:09:38.131Z,24.00
2022-11-30T09:12:08.779Z,21.40
2022-11-30T09:14:36.862Z,36.63
2022-11-30T09:17:05.462Z,31.90
2022-11-30T09:19:33.524Z,31.53
2022-11-30T09:22:01.633Z,21.47
2022-11-30T09:24:29.722Z,25.40
2022-11-30T09:26:58.023Z,31.27
2022-11-30T09:29:27.589Z,28.50
2022-11-30T09:31:55.668Z,22.20
2022-11-30T09:34:23.746Z,29.70
2022-11-30T09:36:51.876Z,26.43
2022-11-30T09:39:20.277Z,26.23
2022-11-30T09:42:25.798Z,28.83
2022-11-30T09:45:03.200Z,29.17
2022-11-30T09:47:54.627Z,23.77
2022-11-30T09:50:26.848Z,26.63
2022-11-30T09:52:58.183Z,27.27
2022-11-30T09:55:30.577Z,27.17
2022-11-30T09:58:02.423Z,27.03
2022-11-30T10:00:32.318Z,26.67
2022-11-30T10:03:04.532Z,26.03
2022-11-30T10:05:46.499Z,24.73
2022-11-30T10:08:35.975Z,25.47
2022-11-30T10:11:32.883Z,22.67
2022-11-30T10:14:15.793Z,22.27
2022-11-30T10:16:52.155Z,22.40
2022-11-30T10:19:33.523Z,20.60
2022-11-30T10:22:12.125Z,24.73
2022-11-30T10:24:57.686Z,20.20
2022-11-30T10:27:39.553Z,22.17
2022-11-30T10:30:15.358Z,20.57
2022-11-30T10:32:48.790Z,21.27
2022-11-30T10:35:23.027Z,23.20
2022-11-30T10:37:53.058Z,22.03
2022-11-30T10:40:27.612Z,28.17
2022-11-30T10:43:07.016Z,17.50
2022-11-30T10:45:38.572Z,22.73
2022-11-30T10:48:15.905Z,18.23
2022-11-30T10:50:44.161Z,22.50
2022-11-30T10:53:13.270Z,19.03
2022-11-30T10:55:44.035Z,21.07
2022-11-30T10:58:22.346Z,19.40
2022-11-30T11:00:58.515Z,18.67
2022-11-30T11:03:28.264Z,18.03
2022-11-30T11:06:16.076Z,21.37
2022-11-30T11:08:46.938Z,20.60
2022-11-30T11:11:34.522Z,19.87
2022-11-30T11:14:19.246Z,22.87
2022-11-30T11:16:58.744Z,21.83
2022-11-30T11:19:39.536Z,20.13
2022-11-30T11:22:17.120Z,19.20
2022-11-30T11:24:46.250Z,20.20
2022-11-30T11:27:25.540Z,16.90
2022-11-30T11:30:03.505Z,16.73
2022-11-30T11:32:32.373Z,17.03
2022-11-30T11:35:02.204Z,17.03
2022-11-30T11:37:33.732Z,16.83
2022-11-30T11:40:05.867Z,17.40
2022-11-30T11:42:38.450Z,16.63
2022-11-30T11:45:16.036Z,16.33
2022-11-30T11:47:46.374Z,16.23
2022-11-30T11:51:04.462Z,17.70
2022-11-30T11:53:26.786Z,17.40
2022-11-30T11:56:00.324Z,16.53
2022-11-30T11:58:39.486Z,17.60
2022-11-30T12:01:38.563Z,14.43
2022-11-30T12:04:12.345Z,12.87
2022-11-30T12:06:43.452Z,12.33
2022-11-30T12:09:16.315Z,11.87
2022-11-30T12:11:46.984Z,11.57
2022-11-30T12:14:17.363Z,12.97
2022-11-30T12:17:00.961Z,12.17
2022-11-30T12:19:36.397Z,14.67
2022-11-30T12:22:16.315Z,12.43
2022-11-30T12:25:08.005Z,14.77
2022-11-30T12:27:49.104Z,14.93
2022-11-30T12:30:24.691Z,12.50
2022-11-30T12:33:12.511Z,15.47
2022-11-30T12:35:57.042Z,14.60
2022-11-30T12:38:37.677Z,15.20
2022-11-30T12:41:20.305Z,14.07
2022-11-30T12:43:55.637Z,14.07
2022-11-30T12:46:30.534Z,14.63
2022-11-30T12:49:21.232Z,11.53
2022-11-30T12:51:55.319Z,11.50
2022-11-30T12:54:32.069Z,11.37
2022-11-30T12:57:12.056Z,10.73
2022-11-30T12:59:47.822Z,12.63
2022-11-30T13:02:41.833Z,11.90
2022-11-30T13:05:13.057Z,13.60
2022-11-30T13:07:46.451Z,10.97
2022-11-30T13:10:26.644Z,13.53
2022-11-30T13:12:57.184Z,218.70
2022-11-30T13:15:28.764Z,32.47
2022-11-30T13:17:57.101Z,15.63
2022-11-30T13:20:36.140Z,11.10
2022-11-30T13:23:10.135Z,12.77
2022-11-30T13:28:53.853Z,12.63
2022-11-30T13:31:25.561Z,12.47
2022-11-30T13:33:59.753Z,12.57
2022-11-30T13:36:39.630Z,13.93
2022-11-30T13:39:29.773Z,12.20
2022-11-30T13:42:36.289Z,13.70
2022-11-30T13:45:32.521Z,11.53
2022-11-30T13:48:16.716Z,12.17
2022-11-30T13:50:48.948Z,11.13
2022-11-30T13:53:23.278Z,11.93
2022-11-30T13:56:00.228Z,14.97
2022-11-30T13:58:30.060Z,11.87
2022-11-30T14:01:20.731Z,12.80
2022-11-30T14:04:24.350Z,10.50
2022-11-30T14:06:55.406Z,14.23
2022-11-30T14:10:09.229Z,14.17
2022-11-30T14:12:49.314Z,13.73
2022-11-30T14:15:53.102Z,17.47
2022-11-30T14:18:29.027Z,16.67
2022-11-30T14:21:01.954Z,13.83
2022-11-30T14:23:33.530Z,0.60
2022-11-30T14:26:10.453Z,0.60
2022-11-30T14:28:43.994Z,0.60
2022-11-30T14:31:17.785Z,0.70
2022-11-30T14:33:51.530Z,16.60
2022-11-30T14:36:21.969Z,17.83
2022-11-30T14:38:50.148Z,18.93
2022-11-30T14:41:23.220Z,22.70
2022-11-30T14:44:02.193Z,20.27
2022-11-30T14:46:31.370Z,19.40
2022-11-30T14:49:15.707Z,15.77
2022-11-30T14:51:46.596Z,19.90
2022-11-30T14:54:40.512Z,18.13
2022-11-30T14:57:17.161Z,17.90
2022-11-30T14:59:50.106Z,17.97
2022-11-30T15:02:27.726Z,23.73
2022-11-30T15:04:59.015Z,19.53
2022-11-30T15:07:29.740Z,22.80
2022-11-30T15:10:04.762Z,21.93
2022-11-30T15:12:34.342Z,21.63
2022-11-30T15:15:04.163Z,25.37
2022-11-30T15:17:33.032Z,24.67
2022-11-30T15:20:03.898Z,21.17
2022-11-30T15:22:35.552Z,22.40
2022-11-30T15:25:03.773Z,21.67
2022-11-30T15:27:32.088Z,23.43
2022-11-30T15:30:01.972Z,22.13
2022-11-30T15:32:30.315Z,20.60
2022-11-30T15:35:00.963Z,20.97
2022-11-30T15:37:33.347Z,20.77
2022-11-30T15:40:03.337Z,22.23
2022-11-30T15:42:39.853Z,21.30
2022-11-30T15:45:20.637Z,22.50
2022-11-30T15:47:49.094Z,17.33
2022-11-30T15:50:41.892Z,17.97
2022-11-30T15:53:29.635Z,18.47
2022-11-30T15:55:59.745Z,17.70
2022-11-30T15:58:34.100Z,18.23
2022-11-30T16:01:09.186Z,14.63
2022-11-30T16:04:07.983Z,19.53
2022-11-30T16:06:39.427Z,16.00
2022-11-30T16:09:20.929Z,17.90
2022-11-30T16:11:51.414Z,18.17
2022-11-30T16:14:19.530Z,17.20
2022-11-30T16:16:48.100Z,19.50
2022-11-30T16:19:16.340Z,17.00
2022-11-30T16:21:50.087Z,17.97
2022-11-30T16:24:20.398Z,16.53
2022-11-30T16:26:51.610Z,19.77
2022-11-30T16:29:20.267Z,23.40
2022-11-30T16:31:48.518Z,25.40
2022-11-30T16:34:16.620Z,28.33
2022-11-30T16:36:44.765Z,28.43
2022-11-30T16:39:13.796Z,22.10
2022-11-30T16:41:45.286Z,23.80
2022-11-30T16:44:15.399Z,20.73
2022-11-30T16:46:43.734Z,19.17
2022-11-30T16:49:11.819Z,20.87
2022-11-30T16:51:41.927Z,23.07
2022-11-30T16:54:13.391Z,23.17
2022-11-30T16:56:42.999Z,18.00
2022-11-30T16:59:16.364Z,17.43
2022-11-30T17:01:48.082Z,0.70
2022-11-30T17:04:20.116Z,0.77
2022-11-30T17:06:50.590Z,0.57
2022-11-30T17:09:20.579Z,0.70
2022-11-30T17:11:52.046Z,0.70
2022-11-30T17:14:20.981Z,0.70
2022-11-30T17:16:49.197Z,0.67
2022-11-30T17:19:17.274Z,14.43
2022-11-30T17:21:45.911Z,23.83
2022-11-30T17:24:14.025Z,21.63
2022-11-30T17:26:42.382Z,22.87
2022-11-30T17:29:11.896Z,24.93
2022-11-30T17:31:40.065Z,29.90
2022-11-30T17:34:08.766Z,29.27
2022-11-30T17:36:36.929Z,28.47
2022-11-30T17:39:07.708Z,25.73
2022-11-30T17:41:35.904Z,27.20
2022-11-30T17:44:04.061Z,24.37
2022-11-30T17:46:33.552Z,21.00
2022-11-30T17:49:01.816Z,20.53
2022-11-30T17:51:30.811Z,24.77
2022-11-30T17:53:59.374Z,24.47
2022-11-30T17:56:27.697Z,21.40
2022-11-30T17:58:55.749Z,47.70
2022-11-30T18:01:26.498Z,49.10
2022-11-30T18:03:58.133Z,22.63
2022-11-30T18:06:26.256Z,14.13
2022-11-30T18:08:54.371Z,10.33
2022-11-30T18:11:24.778Z,9.63
2022-11-30T18:13:54.853Z,9.07
2022-11-30T18:16:24.930Z,10.43
2022-11-30T18:18:53.477Z,12.20
2022-11-30T18:21:24.029Z,12.30
2022-11-30T18:23:52.528Z,10.67
2022-11-30T18:26:22.682Z,11.83
2022-11-30T18:28:53.472Z,12.30
2022-11-30T18:31:21.874Z,12.23
2022-11-30T18:33:50.195Z,13.43
2022-11-30T18:36:18.249Z,9.60
2022-11-30T18:38:47.765Z,10.00
2022-11-30T18:41:15.791Z,13.77
2022-11-30T18:43:43.907Z,12.00
2022-11-30T18:46:13.801Z,10.97
2022-11-30T18:48:42.836Z,11.83
2022-11-30T18:51:12.675Z,11.73
2022-11-30T18:53:40.808Z,12.00
2022-11-30T18:56:13.049Z,10.67
2022-11-30T18:58:41.276Z,13.60
2022-11-30T19:01:10.826Z,11.00
2022-11-30T19:03:39.242Z,10.27
2022-11-30T19:06:09.298Z,9.77
2022-11-30T19:08:37.788Z,12.67
2022-11-30T19:11:07.805Z,11.83
2022-11-30T19:13:37.800Z,11.07
2022-11-30T19:16:09.063Z,10.60
2022-11-30T19:18:37.654Z,8.63
2022-11-30T19:21:09.244Z,10.23
2022-11-30T19:23:37.802Z,8.30
2022-11-30T19:26:06.759Z,9.50
2022-11-30T19:28:38.040Z,12.10
2022-11-30T19:31:09.298Z,8.67
2022-11-30T19:33:38.100Z,8.77
2022-11-30T19:36:08.545Z,8.40
2022-11-30T19:38:36.582Z,7.43
2022-11-30T19:41:07.079Z,8.70
2022-11-30T19:43:35.245Z,8.57
2022-11-30T19:46:09.311Z,5.37
2022-11-30T19:48:37.744Z,7.20
2022-11-30T19:51:14.794Z,7.03
2022-11-30T19:53:46.303Z,6.47
2022-11-30T19:56:16.133Z,7.63
2022-11-30T19:58:46.037Z,7.63
2022-11-30T20:01:15.966Z,10.47
2022-11-30T20:03:44.669Z,10.40
2022-11-30T20:06:13.059Z,12.33
2022-11-30T20:08:41.424Z,9.80
2022-11-30T20:11:10.975Z,12.97
2022-11-30T20:13:39.477Z,45.70
2022-11-30T20:16:09.111Z,10.73
2022-11-30T20:18:44.190Z,9.40
2022-11-30T20:21:15.540Z,10.67
2022-11-30T20:23:45.017Z,13.00
2022-11-30T20:26:14.706Z,9.90
2022-11-30T20:28:42.927Z,10.90
2022-11-30T20:31:12.165Z,8.77
2022-11-30T20:33:42.210Z,10.77
2022-11-30T20:36:11.811Z,12.23
2022-11-30T20:38:40.518Z,10.80
2022-11-30T20:41:12.476Z,10.90
2022-11-30T20:43:40.585Z,11.07
2022-11-30T20:46:18.174Z,11.10
2022-11-30T20:48:48.339Z,12.67
2022-11-30T20:51:33.863Z,8.83
2022-11-30T20:54:03.602Z,10.10
2022-11-30T20:56:31.843Z,9.40
2022-11-30T20:59:03.020Z,10.13
2022-11-30T21:01:31.396Z,9.63
2022-11-30T21:04:01.305Z,11.17
2022-11-30T21:06:29.775Z,13.83
2022-11-30T21:08:58.154Z,14.57
2022-11-30T21:11:27.688Z,13.37
2022-11-30T21:13:56.103Z,12.73
2022-11-30T21:16:28.674Z,14.17
2022-11-30T21:18:58.496Z,15.77
2022-11-30T21:21:30.897Z,13.23
2022-11-30T21:24:00.632Z,15.40
2022-11-30T21:26:30.334Z,15.57
2022-11-30T21:29:01.484Z,11.80
2022-11-30T21:31:30.074Z,11.33
2022-11-30T21:33:58.465Z,12.77
2022-11-30T21:36:28.131Z,13.93
2022-11-30T21:39:04.392Z,13.93
2022-11-30T21:41:33.836Z,14.90
2022-11-30T21:44:01.914Z,15.63
2022-11-30T21:46:30.089Z,15.37
2022-11-30T21:48:58.510Z,16.97
2022-11-30T21:51:29.355Z,17.50
2022-11-30T21:53:58.945Z,15.83
2022-11-30T21:56:28.642Z,17.07
2022-11-30T21:58:57.561Z,15.47
2022-11-30T22:01:28.464Z,15.13
2022-11-30T22:03:57.142Z,14.67
2022-11-30T22:06:28.700Z,14.67
2022-11-30T22:08:57.698Z,14.47
2022-11-30T22:11:25.770Z,14.70
2022-11-30T22:13:54.969Z,16.00
2022-11-30T22:16:28.826Z,14.80
2022-11-30T22:19:02.568Z,15.57
2022-11-30T22:21:32.832Z,14.97
2022-11-30T22:24:03.331Z,15.63
2022-11-30T22:26:33.442Z,20.53
2022-11-30T22:29:02.992Z,16.50
2022-11-30T22:31:32.817Z,18.87
2022-11-30T22:34:01.026Z,15.87
2022-11-30T22:36:32.403Z,16.03
2022-11-30T22:39:02.712Z,16.67
2022-11-30T22:41:31.161Z,13.93
2022-11-30T22:44:00.299Z,15.13
2022-11-30T22:46:30.287Z,15.27
2022-11-30T22:49:01.090Z,17.30
2022-11-30T22:51:33.016Z,15.57
2022-11-30T22:54:02.263Z,16.47
2022-11-30T22:56:32.088Z,17.13
2022-11-30T22:59:01.566Z,17.97
2022-11-30T23:01:32.122Z,16.07
2022-11-30T23:04:04.056Z,15.27
2022-11-30T23:06:34.882Z,23.90
2022-11-30T23:09:03.506Z,110.73
2022-11-30T23:11:32.108Z,15.30
2022-11-30T23:14:01.636Z,60.97
2022-11-30T23:16:29.942Z,19.20
2022-11-30T23:18:58.636Z,22.50
2022-11-30T23:21:30.116Z,53.37
2022-11-30T23:24:02.716Z,22.33
2022-11-30T23:26:32.851Z,32.33
2022-11-30T23:29:02.575Z,16.60
2022-11-30T23:31:35.202Z,19.50
2022-11-30T23:34:05.992Z,20.33
2022-11-30T23:36:34.762Z,32.03
2022-11-30T23:39:06.540Z,17.37
2022-11-30T23:41:35.014Z,34.10
2022-11-30T23:44:03.709Z,107.13
2022-11-30T23:46:32.055Z,16.07
2022-11-30T23:49:00.485Z,16.73
2022-11-30T23:51:28.966Z,17.73
2022-11-30T23:53:57.472Z,38.60
2022-11-30T23:56:27.384Z,18.77
2022-11-30T23:58:56.180Z,18.57
